sensor_id;sensor_type;location;lat;lon;timestamp;P1;durP1;ratioP1;P2;durP2;ratioP2
20695;SDS011;10507;52.754;13.040;2023-12-22T00:01:20;11.33;;;2.40;;
20695;SDS011;10507;52.754;13.040;2023-12-22T00:03:46;9.77;;;2.37;;
20695;SDS011;10507;52.754;13.040;2023-12-22T00:06:15;9.10;;;2.23;;
20695;SDS011;10507;52.754;13.040;2023-12-22T00:08:44;9.43;;;2.33;;
20695;SDS011;10507;52.754;13.040;2023-12-22T00:11:11;12.30;;;2.40;;
20695;SDS011;10507;52.754;13.040;2023-12-22T00:13:43;9.20;;;2.20;;
20695;SDS011;10507;52.754;13.040;2023-12-22T00:16:10;9.70;;;2.40;;
20695;SDS011;10507;52.754;13.040;2023-12-22T00:18:37;7.93;;;2.43;;
20695;SDS011;10507;52.754;13.040;2023-12-22T00:21:03;13.73;;;3.47;;
20695;SDS011;10507;52.754;13.040;2023-12-22T00:23:30;14.27;;;2.90;;
20695;SDS011;10507;52.754;13.040;2023-12-22T00:26:00;21.20;;;3.37;;
20695;SDS011;10507;52.754;13.040;2023-12-22T00:28:27;16.27;;;3.30;;
20695;SDS011;10507;52.754;13.040;2023-12-22T00:30:55;15.80;;;3.00;;
20695;SDS011;10507;52.754;13.040;2023-12-22T00:33:22;15.43;;;3.87;;
20695;SDS011;10507;52.754;13.040;2023-12-22T00:35:48;14.93;;;2.87;;
20695;SDS011;10507;52.754;13.040;2023-12-22T00:38:16;13.00;;;2.80;;
20695;SDS011;10507;52.754;13.040;2023-12-22T00:40:43;10.37;;;2.83;;
20695;SDS011;10507;52.754;13.040;2023-12-22T00:43:09;13.97;;;3.10;;
20695;SDS011;10507;52.754;13.040;2023-12-22T00:45:36;14.90;;;2.83;;
20695;SDS011;10507;52.754;13.040;2023-12-22T00:48:04;10.20;;;2.43;;
20695;SDS011;10507;52.754;13.040;2023-12-22T00:50:31;13.13;;;2.90;;
20695;SDS011;10507;52.754;13.040;2023-12-22T00:52:58;15.67;;;3.20;;
20695;SDS011;10507;52.754;13.040;2023-12-22T00:55:25;13.17;;;3.80;;
20695;SDS011;10507;52.754;13.040;2023-12-22T00:57:51;12.93;;;3.10;;
20695;SDS011;10507;52.754;13.040;2023-12-22T01:00:18;14.27;;;3.30;;
20695;SDS011;10507;52.754;13.040;2023-12-22T01:02:45;16.07;;;2.80;;
20695;SDS011;10507;52.754;13.040;2023-12-22T01:05:13;14.10;;;3.07;;
20695;SDS011;10507;52.754;13.040;2023-12-22T01:07:40;9.67;;;2.47;;
20695;SDS011;10507;52.754;13.040;2023-12-22T01:10:07;10.37;;;2.33;;
20695;SDS011;10507;52.754;13.040;2023-12-22T01:12:37;11.67;;;3.00;;
20695;SDS011;10507;52.754;13.040;2023-12-22T01:15:04;8.93;;;3.10;;
20695;SDS011;10507;52.754;13.040;2023-12-22T01:17:32;10.43;;;3.00;;
20695;SDS011;10507;52.754;13.040;2023-12-22T01:19:59;13.90;;;3.20;;
20695;SDS011;10507;52.754;13.040;2023-12-22T01:22:27;11.50;;;2.90;;
20695;SDS011;10507;52.754;13.040;2023-12-22T01:24:56;8.17;;;2.63;;
20695;SDS011;10507;52.754;13.040;2023-12-22T01:27:22;14.33;;;2.77;;
20695;SDS011;10507;52.754;13.040;2023-12-22T01:29:49;11.27;;;2.43;;
20695;SDS011;10507;52.754;13.040;2023-12-22T01:32:16;14.43;;;2.73;;
20695;SDS011;10507;52.754;13.040;2023-12-22T01:34:42;13.63;;;2.60;;
20695;SDS011;10507;52.754;13.040;2023-12-22T01:37:09;10.63;;;2.50;;
20695;SDS011;10507;52.754;13.040;2023-12-22T01:39:37;8.57;;;3.00;;
20695;SDS011;10507;52.754;13.040;2023-12-22T01:42:04;14.00;;;2.87;;
20695;SDS011;10507;52.754;13.040;2023-12-22T01:44:31;14.67;;;3.07;;
20695;SDS011;10507;52.754;13.040;2023-12-22T01:46:58;9.83;;;2.67;;
20695;SDS011;10507;52.754;13.040;2023-12-22T01:49:25;15.80;;;3.80;;
20695;SDS011;10507;52.754;13.040;2023-12-22T01:51:52;10.50;;;2.80;;
20695;SDS011;10507;52.754;13.040;2023-12-22T01:54:19;13.47;;;2.83;;
20695;SDS011;10507;52.754;13.040;2023-12-22T01:56:47;11.60;;;4.07;;
20695;SDS011;10507;52.754;13.040;2023-12-22T01:59:15;11.23;;;3.17;;
20695;SDS011;10507;52.754;13.040;2023-12-22T02:01:44;20.77;;;4.63;;
20695;SDS011;10507;52.754;13.040;2023-12-22T02:04:11;15.53;;;4.30;;
20695;SDS011;10507;52.754;13.040;2023-12-22T02:06:38;8.10;;;3.13;;
20695;SDS011;10507;52.754;13.040;2023-12-22T02:09:05;16.27;;;2.80;;
20695;SDS011;10507;52.754;13.040;2023-12-22T02:11:32;18.60;;;3.63;;
20695;SDS011;10507;52.754;13.040;2023-12-22T02:14:05;11.77;;;2.70;;
20695;SDS011;10507;52.754;13.040;2023-12-22T02:16:32;13.60;;;3.37;;
20695;SDS011;10507;52.754;13.040;2023-12-22T02:19:05;9.40;;;2.30;;
20695;SDS011;10507;52.754;13.040;2023-12-22T02:24:29;16.53;;;4.13;;
20695;SDS011;10507;52.754;13.040;2023-12-22T02:26:56;11.10;;;3.20;;
20695;SDS011;10507;52.754;13.040;2023-12-22T02:29:29;10.80;;;3.03;;
20695;SDS011;10507;52.754;13.040;2023-12-22T02:31:58;12.33;;;2.50;;
20695;SDS011;10507;52.754;13.040;2023-12-22T02:34:27;19.60;;;3.63;;
20695;SDS011;10507;52.754;13.040;2023-12-22T02:36:55;13.63;;;2.77;;
20695;SDS011;10507;52.754;13.040;2023-12-22T02:39:23;15.00;;;2.43;;
20695;SDS011;10507;52.754;13.040;2023-12-22T02:41:51;12.10;;;2.80;;
20695;SDS011;10507;52.754;13.040;2023-12-22T02:44:18;10.73;;;2.57;;
20695;SDS011;10507;52.754;13.040;2023-12-22T02:46:44;16.20;;;2.60;;
20695;SDS011;10507;52.754;13.040;2023-12-22T02:49:11;8.87;;;2.40;;
20695;SDS011;10507;52.754;13.040;2023-12-22T02:51:38;15.63;;;3.47;;
20695;SDS011;10507;52.754;13.040;2023-12-22T02:54:05;7.93;;;3.20;;
20695;SDS011;10507;52.754;13.040;2023-12-22T02:56:31;13.77;;;2.83;;
20695;SDS011;10507;52.754;13.040;2023-12-22T02:58:59;8.93;;;2.70;;
20695;SDS011;10507;52.754;13.040;2023-12-22T03:01:30;12.87;;;3.23;;
20695;SDS011;10507;52.754;13.040;2023-12-22T03:03:57;10.07;;;2.20;;
20695;SDS011;10507;52.754;13.040;2023-12-22T03:06:24;10.20;;;2.30;;
20695;SDS011;10507;52.754;13.040;2023-12-22T03:08:51;10.17;;;2.37;;
20695;SDS011;10507;52.754;13.040;2023-12-22T03:11:17;9.03;;;2.50;;
20695;SDS011;10507;52.754;13.040;2023-12-22T03:13:44;10.60;;;2.27;;
20695;SDS011;10507;52.754;13.040;2023-12-22T03:16:14;8.47;;;2.27;;
20695;SDS011;10507;52.754;13.040;2023-12-22T03:18:40;8.73;;;2.13;;
20695;SDS011;10507;52.754;13.040;2023-12-22T03:21:07;9.57;;;2.23;;
20695;SDS011;10507;52.754;13.040;2023-12-22T03:23:34;9.40;;;2.10;;
20695;SDS011;10507;52.754;13.040;2023-12-22T03:26:02;10.67;;;2.30;;
20695;SDS011;10507;52.754;13.040;2023-12-22T03:28:29;8.50;;;2.27;;
20695;SDS011;10507;52.754;13.040;2023-12-22T03:30:58;10.90;;;2.63;;
20695;SDS011;10507;52.754;13.040;2023-12-22T03:33:25;19.63;;;2.87;;
20695;SDS011;10507;52.754;13.040;2023-12-22T03:35:52;15.47;;;3.10;;
20695;SDS011;10507;52.754;13.040;2023-12-22T03:38:19;8.17;;;2.23;;
20695;SDS011;10507;52.754;13.040;2023-12-22T03:40:45;11.53;;;2.20;;
20695;SDS011;10507;52.754;13.040;2023-12-22T03:43:12;7.83;;;1.90;;
20695;SDS011;10507;52.754;13.040;2023-12-22T03:45:39;10.97;;;1.90;;
20695;SDS011;10507;52.754;13.040;2023-12-22T03:48:06;6.57;;;2.00;;
20695;SDS011;10507;52.754;13.040;2023-12-22T03:50:34;7.50;;;1.83;;
20695;SDS011;10507;52.754;13.040;2023-12-22T03:53:01;8.33;;;1.50;;
20695;SDS011;10507;52.754;13.040;2023-12-22T03:55:28;4.13;;;1.30;;
20695;SDS011;10507;52.754;13.040;2023-12-22T03:57:55;5.40;;;1.60;;
20695;SDS011;10507;52.754;13.040;2023-12-22T04:00:21;6.77;;;1.40;;
20695;SDS011;10507;52.754;13.040;2023-12-22T04:02:48;2.47;;;1.40;;
20695;SDS011;10507;52.754;13.040;2023-12-22T04:05:15;3.67;;;1.30;;
20695;SDS011;10507;52.754;13.040;2023-12-22T04:07:43;2.77;;;1.37;;
20695;SDS011;10507;52.754;13.040;2023-12-22T04:10:10;1.80;;;1.13;;
20695;SDS011;10507;52.754;13.040;2023-12-22T04:12:37;2.60;;;1.13;;
20695;SDS011;10507;52.754;13.040;2023-12-22T04:15:04;5.47;;;1.83;;
20695;SDS011;10507;52.754;13.040;2023-12-22T04:17:34;3.70;;;1.20;;
20695;SDS011;10507;52.754;13.040;2023-12-22T04:20:01;3.33;;;1.60;;
20695;SDS011;10507;52.754;13.040;2023-12-22T04:22:28;4.50;;;1.40;;
20695;SDS011;10507;52.754;13.040;2023-12-22T04:24:55;5.83;;;1.43;;
20695;SDS011;10507;52.754;13.040;2023-12-22T04:27:27;4.00;;;1.57;;
20695;SDS011;10507;52.754;13.040;2023-12-22T04:29:54;4.23;;;1.50;;
20695;SDS011;10507;52.754;13.040;2023-12-22T04:32:20;5.83;;;1.50;;
20695;SDS011;10507;52.754;13.040;2023-12-22T04:34:47;7.93;;;2.37;;
20695;SDS011;10507;52.754;13.040;2023-12-22T04:37:14;3.93;;;1.50;;
20695;SDS011;10507;52.754;13.040;2023-12-22T04:39:40;6.03;;;1.60;;
20695;SDS011;10507;52.754;13.040;2023-12-22T04:42:09;4.80;;;2.17;;
20695;SDS011;10507;52.754;13.040;2023-12-22T04:44:35;5.30;;;2.83;;
20695;SDS011;10507;52.754;13.040;2023-12-22T04:47:02;4.77;;;1.80;;
20695;SDS011;10507;52.754;13.040;2023-12-22T04:49:29;4.33;;;1.43;;
20695;SDS011;10507;52.754;13.040;2023-12-22T04:51:56;2.80;;;1.20;;
20695;SDS011;10507;52.754;13.040;2023-12-22T04:54:23;7.33;;;1.57;;
20695;SDS011;10507;52.754;13.040;2023-12-22T04:56:49;3.10;;;1.60;;
20695;SDS011;10507;52.754;13.040;2023-12-22T04:59:17;9.87;;;1.50;;
20695;SDS011;10507;52.754;13.040;2023-12-22T05:01:44;3.53;;;1.30;;
20695;SDS011;10507;52.754;13.040;2023-12-22T05:04:11;4.10;;;1.80;;
20695;SDS011;10507;52.754;13.040;2023-12-22T05:06:38;3.77;;;1.10;;
20695;SDS011;10507;52.754;13.040;2023-12-22T05:09:07;2.73;;;1.10;;
20695;SDS011;10507;52.754;13.040;2023-12-22T05:11:34;4.10;;;1.57;;
20695;SDS011;10507;52.754;13.040;2023-12-22T05:14:01;4.37;;;1.30;;
20695;SDS011;10507;52.754;13.040;2023-12-22T05:16:29;3.13;;;1.10;;
20695;SDS011;10507;52.754;13.040;2023-12-22T05:18:56;2.57;;;1.20;;
20695;SDS011;10507;52.754;13.040;2023-12-22T05:21:23;3.17;;;1.30;;
20695;SDS011;10507;52.754;13.040;2023-12-22T05:23:50;3.30;;;1.30;;
20695;SDS011;10507;52.754;13.040;2023-12-22T05:26:20;3.17;;;1.53;;
20695;SDS011;10507;52.754;13.040;2023-12-22T05:28:47;2.33;;;1.37;;
20695;SDS011;10507;52.754;13.040;2023-12-22T05:31:14;3.43;;;1.57;;
20695;SDS011;10507;52.754;13.040;2023-12-22T05:33:43;2.27;;;1.73;;
20695;SDS011;10507;52.754;13.040;2023-12-22T05:36:10;1.67;;;1.00;;
20695;SDS011;10507;52.754;13.040;2023-12-22T05:38:37;3.80;;;1.40;;
20695;SDS011;10507;52.754;13.040;2023-12-22T05:41:04;2.80;;;1.30;;
20695;SDS011;10507;52.754;13.040;2023-12-22T05:43:31;4.80;;;1.57;;
20695;SDS011;10507;52.754;13.040;2023-12-22T05:45:58;5.60;;;1.37;;
20695;SDS011;10507;52.754;13.040;2023-12-22T05:48:25;5.53;;;1.60;;
20695;SDS011;10507;52.754;13.040;2023-12-22T05:50:54;9.83;;;1.53;;
20695;SDS011;10507;52.754;13.040;2023-12-22T05:53:22;5.70;;;1.50;;
20695;SDS011;10507;52.754;13.040;2023-12-22T05:55:49;7.00;;;1.93;;
20695;SDS011;10507;52.754;13.040;2023-12-22T05:58:16;2.77;;;1.20;;
20695;SDS011;10507;52.754;13.040;2023-12-22T06:00:42;3.23;;;1.27;;
20695;SDS011;10507;52.754;13.040;2023-12-22T06:03:09;4.77;;;1.40;;
20695;SDS011;10507;52.754;13.040;2023-12-22T06:05:36;5.90;;;2.10;;
20695;SDS011;10507;52.754;13.040;2023-12-22T06:08:05;5.00;;;1.60;;
20695;SDS011;10507;52.754;13.040;2023-12-22T06:10:32;3.13;;;1.10;;
20695;SDS011;10507;52.754;13.040;2023-12-22T06:12:59;4.80;;;1.53;;
20695;SDS011;10507;52.754;13.040;2023-12-22T06:15:28;1.80;;;1.33;;
20695;SDS011;10507;52.754;13.040;2023-12-22T06:17:55;4.03;;;1.50;;
20695;SDS011;10507;52.754;13.040;2023-12-22T06:20:23;3.27;;;1.30;;
20695;SDS011;10507;52.754;13.040;2023-12-22T06:22:49;4.10;;;1.47;;
20695;SDS011;10507;52.754;13.040;2023-12-22T06:25:17;4.40;;;1.30;;
20695;SDS011;10507;52.754;13.040;2023-12-22T06:27:45;6.97;;;1.70;;
20695;SDS011;10507;52.754;13.040;2023-12-22T06:30:12;3.37;;;1.50;;
20695;SDS011;10507;52.754;13.040;2023-12-22T06:32:39;4.50;;;1.20;;
20695;SDS011;10507;52.754;13.040;2023-12-22T06:35:07;3.60;;;1.27;;
20695;SDS011;10507;52.754;13.040;2023-12-22T06:37:35;2.20;;;1.20;;
20695;SDS011;10507;52.754;13.040;2023-12-22T06:40:01;3.87;;;1.20;;
20695;SDS011;10507;52.754;13.040;2023-12-22T06:42:29;3.53;;;1.50;;
20695;SDS011;10507;52.754;13.040;2023-12-22T06:44:59;2.40;;;1.27;;
20695;SDS011;10507;52.754;13.040;2023-12-22T06:47:25;3.73;;;1.30;;
20695;SDS011;10507;52.754;13.040;2023-12-22T06:49:52;5.90;;;1.53;;
20695;SDS011;10507;52.754;13.040;2023-12-22T06:52:19;2.80;;;1.13;;
20695;SDS011;10507;52.754;13.040;2023-12-22T06:54:46;4.70;;;1.67;;
20695;SDS011;10507;52.754;13.040;2023-12-22T06:57:13;5.50;;;1.50;;
20695;SDS011;10507;52.754;13.040;2023-12-22T06:59:41;2.70;;;2.13;;
20695;SDS011;10507;52.754;13.040;2023-12-22T07:02:07;4.33;;;1.40;;
20695;SDS011;10507;52.754;13.040;2023-12-22T07:07:32;6.60;;;1.47;;
20695;SDS011;10507;52.754;13.040;2023-12-22T07:09:59;10.80;;;2.60;;
20695;SDS011;10507;52.754;13.040;2023-12-22T07:12:25;5.73;;;1.60;;
20695;SDS011;10507;52.754;13.040;2023-12-22T07:14:54;5.70;;;2.07;;
20695;SDS011;10507;52.754;13.040;2023-12-22T07:17:20;3.60;;;1.40;;
20695;SDS011;10507;52.754;13.040;2023-12-22T07:19:47;4.10;;;1.37;;
20695;SDS011;10507;52.754;13.040;2023-12-22T07:22:17;5.80;;;1.90;;
20695;SDS011;10507;52.754;13.040;2023-12-22T07:24:43;4.40;;;1.70;;
20695;SDS011;10507;52.754;13.040;2023-12-22T07:27:12;2.67;;;1.70;;
20695;SDS011;10507;52.754;13.040;2023-12-22T07:29:39;4.57;;;1.70;;
20695;SDS011;10507;52.754;13.040;2023-12-22T07:32:07;7.67;;;2.60;;
20695;SDS011;10507;52.754;13.040;2023-12-22T07:34:34;8.20;;;2.20;;
20695;SDS011;10507;52.754;13.040;2023-12-22T07:37:00;7.27;;;1.77;;
20695;SDS011;10507;52.754;13.040;2023-12-22T07:39:27;5.27;;;2.00;;
20695;SDS011;10507;52.754;13.040;2023-12-22T07:41:54;6.67;;;1.83;;
20695;SDS011;10507;52.754;13.040;2023-12-22T07:44:29;6.70;;;2.00;;
20695;SDS011;10507;52.754;13.040;2023-12-22T07:46:56;9.63;;;2.07;;
20695;SDS011;10507;52.754;13.040;2023-12-22T07:49:25;6.13;;;1.70;;
20695;SDS011;10507;52.754;13.040;2023-12-22T07:51:52;7.27;;;1.73;;
20695;SDS011;10507;52.754;13.040;2023-12-22T07:54:19;8.57;;;2.13;;
20695;SDS011;10507;52.754;13.040;2023-12-22T07:56:46;6.97;;;2.43;;
20695;SDS011;10507;52.754;13.040;2023-12-22T07:59:13;3.90;;;1.40;;
20695;SDS011;10507;52.754;13.040;2023-12-22T08:01:40;7.80;;;1.53;;
20695;SDS011;10507;52.754;13.040;2023-12-22T08:04:06;8.53;;;1.93;;
20695;SDS011;10507;52.754;13.040;2023-12-22T08:06:34;6.37;;;1.30;;
20695;SDS011;10507;52.754;13.040;2023-12-22T08:09:01;7.57;;;1.50;;
20695;SDS011;10507;52.754;13.040;2023-12-22T08:11:28;5.50;;;1.33;;
20695;SDS011;10507;52.754;13.040;2023-12-22T08:13:55;6.53;;;1.53;;
20695;SDS011;10507;52.754;13.040;2023-12-22T08:16:21;6.20;;;1.10;;
20695;SDS011;10507;52.754;13.040;2023-12-22T08:18:48;5.60;;;1.30;;
20695;SDS011;10507;52.754;13.040;2023-12-22T08:21:15;7.00;;;1.67;;
20695;SDS011;10507;52.754;13.040;2023-12-22T08:23:44;8.17;;;1.57;;
20695;SDS011;10507;52.754;13.040;2023-12-22T08:26:10;9.17;;;1.70;;
20695;SDS011;10507;52.754;13.040;2023-12-22T08:28:39;9.03;;;1.80;;
20695;SDS011;10507;52.754;13.040;2023-12-22T08:31:06;9.47;;;1.93;;
20695;SDS011;10507;52.754;13.040;2023-12-22T08:33:32;20.23;;;5.20;;
20695;SDS011;10507;52.754;13.040;2023-12-22T08:35:59;18.17;;;8.67;;
20695;SDS011;10507;52.754;13.040;2023-12-22T08:38:26;21.30;;;7.53;;
20695;SDS011;10507;52.754;13.040;2023-12-22T08:40:55;10.43;;;5.07;;
20695;SDS011;10507;52.754;13.040;2023-12-22T08:43:22;11.47;;;4.07;;
20695;SDS011;10507;52.754;13.040;2023-12-22T08:45:52;9.73;;;2.60;;
20695;SDS011;10507;52.754;13.040;2023-12-22T08:48:18;4.80;;;1.57;;
20695;SDS011;10507;52.754;13.040;2023-12-22T08:50:45;8.87;;;2.00;;
20695;SDS011;10507;52.754;13.040;2023-12-22T08:53:12;11.20;;;2.10;;
20695;SDS011;10507;52.754;13.040;2023-12-22T08:55:39;13.20;;;3.37;;
20695;SDS011;10507;52.754;13.040;2023-12-22T08:58:07;10.30;;;2.60;;
20695;SDS011;10507;52.754;13.040;2023-12-22T09:00:33;10.87;;;2.37;;
20695;SDS011;10507;52.754;13.040;2023-12-22T09:03:00;10.67;;;2.37;;
20695;SDS011;10507;52.754;13.040;2023-12-22T09:05:27;15.10;;;1.83;;
20695;SDS011;10507;52.754;13.040;2023-12-22T09:07:54;11.57;;;1.80;;
20695;SDS011;10507;52.754;13.040;2023-12-22T09:10:21;11.37;;;1.90;;
20695;SDS011;10507;52.754;13.040;2023-12-22T09:12:47;9.80;;;2.20;;
20695;SDS011;10507;52.754;13.040;2023-12-22T09:15:15;8.23;;;1.80;;
20695;SDS011;10507;52.754;13.040;2023-12-22T09:17:42;9.27;;;1.90;;
20695;SDS011;10507;52.754;13.040;2023-12-22T09:20:09;11.83;;;2.23;;
20695;SDS011;10507;52.754;13.040;2023-12-22T09:22:36;6.40;;;2.37;;
20695;SDS011;10507;52.754;13.040;2023-12-22T09:25:03;11.47;;;2.00;;
20695;SDS011;10507;52.754;13.040;2023-12-22T09:27:30;9.80;;;2.33;;
20695;SDS011;10507;52.754;13.040;2023-12-22T09:29:57;9.83;;;2.57;;
20695;SDS011;10507;52.754;13.040;2023-12-22T09:32:25;11.33;;;2.10;;
20695;SDS011;10507;52.754;13.040;2023-12-22T09:34:52;11.13;;;2.00;;
20695;SDS011;10507;52.754;13.040;2023-12-22T09:37:20;7.83;;;2.67;;
20695;SDS011;10507;52.754;13.040;2023-12-22T09:39:47;12.10;;;2.43;;
20695;SDS011;10507;52.754;13.040;2023-12-22T09:42:13;8.70;;;2.20;;
20695;SDS011;10507;52.754;13.040;2023-12-22T09:44:41;6.70;;;1.70;;
20695;SDS011;10507;52.754;13.040;2023-12-22T09:47:10;12.70;;;2.40;;
20695;SDS011;10507;52.754;13.040;2023-12-22T09:49:39;10.33;;;2.00;;
20695;SDS011;10507;52.754;13.040;2023-12-22T09:52:08;8.80;;;1.93;;
20695;SDS011;10507;52.754;13.040;2023-12-22T09:54:37;10.07;;;2.60;;
20695;SDS011;10507;52.754;13.040;2023-12-22T09:57:05;13.43;;;2.63;;
20695;SDS011;10507;52.754;13.040;2023-12-22T09:59:33;13.63;;;2.40;;
20695;SDS011;10507;52.754;13.040;2023-12-22T10:02:01;17.40;;;2.80;;
20695;SDS011;10507;52.754;13.040;2023-12-22T10:04:30;11.27;;;2.50;;
20695;SDS011;10507;52.754;13.040;2023-12-22T10:06:58;13.50;;;2.40;;
20695;SDS011;10507;52.754;13.040;2023-12-22T10:09:29;9.87;;;2.67;;
20695;SDS011;10507;52.754;13.040;2023-12-22T10:11:56;9.87;;;2.20;;
20695;SDS011;10507;52.754;13.040;2023-12-22T10:14:24;11.80;;;2.60;;
20695;SDS011;10507;52.754;13.040;2023-12-22T10:16:53;14.73;;;2.27;;
20695;SDS011;10507;52.754;13.040;2023-12-22T10:19:21;7.40;;;2.37;;
20695;SDS011;10507;52.754;13.040;2023-12-22T10:21:48;12.00;;;2.53;;
20695;SDS011;10507;52.754;13.040;2023-12-22T10:27:04;14.10;;;2.60;;
20695;SDS011;10507;52.754;13.040;2023-12-22T10:29:31;12.97;;;2.83;;
20695;SDS011;10507;52.754;13.040;2023-12-22T10:31:59;13.63;;;3.07;;
20695;SDS011;10507;52.754;13.040;2023-12-22T10:34:27;16.13;;;3.87;;
20695;SDS011;10507;52.754;13.040;2023-12-22T10:36:54;22.17;;;2.90;;
20695;SDS011;10507;52.754;13.040;2023-12-22T10:39:21;15.13;;;3.30;;
20695;SDS011;10507;52.754;13.040;2023-12-22T10:41:49;18.00;;;3.00;;
20695;SDS011;10507;52.754;13.040;2023-12-22T10:44:16;10.47;;;2.40;;
20695;SDS011;10507;52.754;13.040;2023-12-22T10:46:44;9.53;;;2.93;;
20695;SDS011;10507;52.754;13.040;2023-12-22T10:49:13;18.63;;;3.97;;
20695;SDS011;10507;52.754;13.040;2023-12-22T10:51:40;12.27;;;2.53;;
20695;SDS011;10507;52.754;13.040;2023-12-22T10:54:07;15.87;;;3.83;;
20695;SDS011;10507;52.754;13.040;2023-12-22T10:56:34;11.43;;;2.47;;
20695;SDS011;10507;52.754;13.040;2023-12-22T10:59:03;13.67;;;3.33;;
20695;SDS011;10507;52.754;13.040;2023-12-22T11:01:30;10.20;;;2.40;;
20695;SDS011;10507;52.754;13.040;2023-12-22T11:04:01;13.30;;;2.57;;
20695;SDS011;10507;52.754;13.040;2023-12-22T11:06:28;13.83;;;2.63;;
20695;SDS011;10507;52.754;13.040;2023-12-22T11:08:56;13.07;;;2.60;;
20695;SDS011;10507;52.754;13.040;2023-12-22T11:11:26;10.53;;;2.80;;
20695;SDS011;10507;52.754;13.040;2023-12-22T11:13:54;11.97;;;2.87;;
20695;SDS011;10507;52.754;13.040;2023-12-22T11:16:25;15.50;;;3.80;;
20695;SDS011;10507;52.754;13.040;2023-12-22T11:18:54;15.23;;;4.27;;
20695;SDS011;10507;52.754;13.040;2023-12-22T11:21:21;14.57;;;4.00;;
20695;SDS011;10507;52.754;13.040;2023-12-22T11:23:49;12.97;;;3.07;;
20695;SDS011;10507;52.754;13.040;2023-12-22T11:26:19;9.00;;;3.10;;
20695;SDS011;10507;52.754;13.040;2023-12-22T11:28:47;10.43;;;3.03;;
20695;SDS011;10507;52.754;13.040;2023-12-22T11:31:16;12.57;;;2.93;;
20695;SDS011;10507;52.754;13.040;2023-12-22T11:33:46;11.43;;;3.00;;
20695;SDS011;10507;52.754;13.040;2023-12-22T11:36:16;10.63;;;2.00;;
20695;SDS011;10507;52.754;13.040;2023-12-22T11:38:44;11.10;;;3.03;;
20695;SDS011;10507;52.754;13.040;2023-12-22T11:41:12;12.67;;;2.63;;
20695;SDS011;10507;52.754;13.040;2023-12-22T11:43:43;8.30;;;2.60;;
20695;SDS011;10507;52.754;13.040;2023-12-22T11:46:11;10.83;;;2.10;;
20695;SDS011;10507;52.754;13.040;2023-12-22T11:48:38;12.73;;;2.50;;
20695;SDS011;10507;52.754;13.040;2023-12-22T11:51:15;9.70;;;2.60;;
20695;SDS011;10507;52.754;13.040;2023-12-22T11:53:42;8.60;;;2.63;;
20695;SDS011;10507;52.754;13.040;2023-12-22T11:56:10;10.07;;;2.80;;
20695;SDS011;10507;52.754;13.040;2023-12-22T11:58:38;7.97;;;1.97;;
20695;SDS011;10507;52.754;13.040;2023-12-22T12:01:07;9.47;;;2.13;;
20695;SDS011;10507;52.754;13.040;2023-12-22T12:03:40;9.93;;;2.37;;
20695;SDS011;10507;52.754;13.040;2023-12-22T12:06:30;8.10;;;2.07;;
20695;SDS011;10507;52.754;13.040;2023-12-22T12:08:59;7.87;;;1.97;;
20695;SDS011;10507;52.754;13.040;2023-12-22T12:14:29;6.87;;;2.10;;
20695;SDS011;10507;52.754;13.040;2023-12-22T12:17:00;9.27;;;2.00;;
20695;SDS011;10507;52.754;13.040;2023-12-22T12:19:33;8.13;;;2.50;;
20695;SDS011;10507;52.754;13.040;2023-12-22T12:22:02;11.00;;;2.43;;
20695;SDS011;10507;52.754;13.040;2023-12-22T12:24:29;10.13;;;2.30;;
20695;SDS011;10507;52.754;13.040;2023-12-22T12:26:56;13.07;;;3.03;;
20695;SDS011;10507;52.754;13.040;2023-12-22T12:29:23;7.27;;;2.23;;
20695;SDS011;10507;52.754;13.040;2023-12-22T12:31:50;10.90;;;2.43;;
20695;SDS011;10507;52.754;13.040;2023-12-22T12:34:17;14.20;;;2.40;;
20695;SDS011;10507;52.754;13.040;2023-12-22T12:36:46;12.03;;;2.47;;
20695;SDS011;10507;52.754;13.040;2023-12-22T12:39:15;9.07;;;2.23;;
20695;SDS011;10507;52.754;13.040;2023-12-22T12:41:44;9.00;;;2.10;;
20695;SDS011;10507;52.754;13.040;2023-12-22T12:44:19;8.63;;;2.40;;
20695;SDS011;10507;52.754;13.040;2023-12-22T12:46:48;10.40;;;2.37;;
20695;SDS011;10507;52.754;13.040;2023-12-22T12:49:14;12.30;;;2.10;;
20695;SDS011;10507;52.754;13.040;2023-12-22T12:51:42;9.47;;;2.20;;
20695;SDS011;10507;52.754;13.040;2023-12-22T12:54:10;10.33;;;2.67;;
20695;SDS011;10507;52.754;13.040;2023-12-22T12:56:39;13.70;;;2.53;;
20695;SDS011;10507;52.754;13.040;2023-12-22T12:59:07;9.43;;;2.47;;
20695;SDS011;10507;52.754;13.040;2023-12-22T13:01:37;7.87;;;2.10;;
20695;SDS011;10507;52.754;13.040;2023-12-22T13:04:05;8.20;;;2.00;;
20695;SDS011;10507;52.754;13.040;2023-12-22T13:06:31;8.40;;;1.90;;
20695;SDS011;10507;52.754;13.040;2023-12-22T13:08:58;7.73;;;2.30;;
20695;SDS011;10507;52.754;13.040;2023-12-22T13:11:26;12.17;;;1.83;;
20695;SDS011;10507;52.754;13.040;2023-12-22T13:13:56;8.80;;;2.43;;
20695;SDS011;10507;52.754;13.040;2023-12-22T13:16:25;6.87;;;1.87;;
20695;SDS011;10507;52.754;13.040;2023-12-22T13:18:56;10.20;;;2.43;;
20695;SDS011;10507;52.754;13.040;2023-12-22T13:21:24;10.93;;;2.17;;
20695;SDS011;10507;52.754;13.040;2023-12-22T13:26:35;9.10;;;2.13;;
20695;SDS011;10507;52.754;13.040;2023-12-22T13:29:04;10.30;;;2.00;;
20695;SDS011;10507;52.754;13.040;2023-12-22T13:31:31;6.93;;;1.80;;
20695;SDS011;10507;52.754;13.040;2023-12-22T13:34:01;7.77;;;2.17;;
20695;SDS011;10507;52.754;13.040;2023-12-22T13:36:28;9.80;;;1.77;;
20695;SDS011;10507;52.754;13.040;2023-12-22T13:39:00;7.87;;;1.80;;
20695;SDS011;10507;52.754;13.040;2023-12-22T13:41:29;6.87;;;1.90;;
20695;SDS011;10507;52.754;13.040;2023-12-22T13:43:57;7.07;;;2.00;;
20695;SDS011;10507;52.754;13.040;2023-12-22T13:46:27;7.43;;;2.17;;
20695;SDS011;10507;52.754;13.040;2023-12-22T13:48:58;6.03;;;2.00;;
20695;SDS011;10507;52.754;13.040;2023-12-22T13:51:25;6.60;;;1.83;;
20695;SDS011;10507;52.754;13.040;2023-12-22T13:53:52;9.10;;;2.77;;
20695;SDS011;10507;52.754;13.040;2023-12-22T13:56:18;9.10;;;2.63;;
20695;SDS011;10507;52.754;13.040;2023-12-22T13:58:45;9.83;;;2.40;;
20695;SDS011;10507;52.754;13.040;2023-12-22T14:01:13;9.23;;;2.20;;
20695;SDS011;10507;52.754;13.040;2023-12-22T14:03:42;9.13;;;2.20;;
20695;SDS011;10507;52.754;13.040;2023-12-22T14:06:11;11.27;;;2.50;;
20695;SDS011;10507;52.754;13.040;2023-12-22T14:08:38;8.50;;;2.20;;
20695;SDS011;10507;52.754;13.040;2023-12-22T14:11:06;12.73;;;2.70;;
20695;SDS011;10507;52.754;13.040;2023-12-22T14:13:33;9.17;;;2.57;;
20695;SDS011;10507;52.754;13.040;2023-12-22T14:16:03;13.67;;;2.90;;
20695;SDS011;10507;52.754;13.040;2023-12-22T14:18:30;12.23;;;2.20;;
20695;SDS011;10507;52.754;13.040;2023-12-22T14:20:58;8.73;;;2.23;;
20695;SDS011;10507;52.754;13.040;2023-12-22T14:23:25;7.17;;;2.10;;
20695;SDS011;10507;52.754;13.040;2023-12-22T14:25:52;9.83;;;2.17;;
20695;SDS011;10507;52.754;13.040;2023-12-22T14:28:19;8.70;;;1.80;;
20695;SDS011;10507;52.754;13.040;2023-12-22T14:30:46;8.77;;;2.77;;
20695;SDS011;10507;52.754;13.040;2023-12-22T14:33:12;12.23;;;2.57;;
20695;SDS011;10507;52.754;13.040;2023-12-22T14:35:39;4.70;;;1.80;;
20695;SDS011;10507;52.754;13.040;2023-12-22T14:38:08;7.10;;;1.73;;
20695;SDS011;10507;52.754;13.040;2023-12-22T14:40:37;9.83;;;2.67;;
20695;SDS011;10507;52.754;13.040;2023-12-22T14:43:04;7.37;;;2.30;;
20695;SDS011;10507;52.754;13.040;2023-12-22T14:45:31;10.00;;;2.57;;